createdAt,value
2018-10-02T00:02:55.860Z,97644.35
2018-10-02T00:07:50.717Z,97644.77
2018-10-02T00:12:50.545Z,97645.03
2018-10-02T00:17:49.357Z,97652.92
2018-10-02T00:22:44.178Z,97644.86
2018-10-02T00:27:38.981Z,97642.60
2018-10-02T00:32:33.930Z,97644.77
2018-10-02T00:37:28.820Z,97649.16
2018-10-02T00:42:23.646Z,97649.46
2018-10-02T00:47:18.442Z,97655.28
2018-10-02T00:52:13.258Z,97654.69
2018-10-02T00:57:08.146Z,97656.55
2018-10-02T01:02:02.950Z,97651.30
2018-10-02T01:06:57.757Z,97648.81
2018-10-02T01:11:52.595Z,97649.95
2018-10-02T01:16:47.392Z,97650.80
2018-10-02T01:21:42.167Z,97652.34
2018-10-02T01:26:36.961Z,97647.92
2018-10-02T01:31:31.736Z,97643.43
2018-10-02T01:36:26.470Z,97648.81
2018-10-02T01:41:21.415Z,97658.14
2018-10-02T01:46:16.374Z,97661.56
2018-10-02T01:51:11.178Z,97655.96
2018-10-02T01:56:05.990Z,97660.73
2018-10-02T02:01:00.825Z,97658.98
2018-10-02T02:05:55.643Z,97653.52
2018-10-02T02:10:50.500Z,97660.20
2018-10-02T02:15:45.301Z,97671.02
2018-10-02T02:20:40.131Z,97671.58
2018-10-02T02:25:34.953Z,97667.06
2018-10-02T02:30:29.843Z,97667.38
2018-10-02T02:35:24.642Z,97680.51
2018-10-02T02:40:19.436Z,97677.56
2018-10-02T02:45:14.291Z,97679.87
2018-10-02T02:50:14.299Z,97680.70
2018-10-02T02:55:09.105Z,97684.12
2018-10-02T03:00:04.148Z,97692.05
2018-10-02T03:04:58.950Z,97695.18
2018-10-02T03:09:53.785Z,97695.88
2018-10-02T03:14:48.694Z,97697.09
2018-10-02T03:19:43.493Z,97692.00
2018-10-02T03:24:38.316Z,97701.05
2018-10-02T03:29:33.133Z,97700.66
2018-10-02T03:34:27.929Z,97700.34
2018-10-02T03:39:22.825Z,97700.34
2018-10-02T03:44:17.802Z,97708.44
2018-10-02T03:49:12.590Z,97704.34
2018-10-02T03:54:07.642Z,97697.82
2018-10-02T03:59:02.781Z,97713.94
2018-10-02T04:03:57.738Z,97705.95
2018-10-02T04:08:52.511Z,97709.27
2018-10-02T04:13:47.862Z,97719.00
2018-10-02T04:18:42.715Z,97719.86
2018-10-02T04:23:37.494Z,97728.03
2018-10-02T04:28:32.319Z,97726.81
2018-10-02T04:33:27.108Z,97731.56
2018-10-02T04:38:21.887Z,97737.64
2018-10-02T04:43:16.706Z,97732.61
2018-10-02T04:48:11.491Z,97733.98
2018-10-02T04:53:07.030Z,97740.66
2018-10-02T04:58:01.825Z,97745.09
2018-10-02T05:02:56.645Z,97750.13
2018-10-02T05:07:51.470Z,97763.33
2018-10-02T05:12:46.925Z,97763.70
2018-10-02T05:17:41.696Z,97773.08
2018-10-02T05:22:36.504Z,97765.09
2018-10-02T05:27:31.296Z,97767.28
2018-10-02T05:32:26.954Z,97770.01
2018-10-02T05:37:21.749Z,97781.45
2018-10-02T05:42:16.605Z,97784.88
2018-10-02T05:47:11.462Z,97783.28
2018-10-02T05:52:06.228Z,97786.78
2018-10-02T05:57:01.099Z,97776.98
2018-10-02T06:01:56.245Z,97781.75
2018-10-02T06:06:51.065Z,97781.66
2018-10-02T06:11:45.889Z,97780.81
2018-10-02T06:16:41.231Z,97782.20
2018-10-02T06:21:36.062Z,97790.91
2018-10-02T06:26:30.910Z,97797.34
2018-10-02T06:31:25.962Z,97801.63
2018-10-02T06:36:20.785Z,97804.66
2018-10-02T06:41:15.621Z,97801.72
2018-10-02T06:46:10.729Z,97804.23
2018-10-02T06:51:06.431Z,97816.26
2018-10-02T06:56:01.189Z,97814.09
2018-10-02T07:00:55.979Z,97815.55
2018-10-02T07:05:50.760Z,97816.66
2018-10-02T07:10:45.553Z,97821.02
2018-10-02T07:15:40.300Z,97826.22
2018-10-02T07:20:35.634Z,97830.75
2018-10-02T07:25:30.557Z,97838.94
2018-10-02T07:30:25.466Z,97847.58
2018-10-02T07:35:20.314Z,97841.77
2018-10-02T07:40:15.109Z,97844.14
2018-10-02T07:45:10.002Z,97851.27
2018-10-02T07:50:04.897Z,97848.54
2018-10-02T07:54:59.692Z,97845.70
2018-10-02T07:59:54.586Z,97843.15
2018-10-02T08:04:49.623Z,97829.45
2018-10-02T08:09:44.600Z,97840.56
2018-10-02T08:14:39.431Z,97836.18
2018-10-02T08:19:34.349Z,97844.98
2018-10-02T08:24:29.166Z,97847.44
2018-10-02T08:29:24.047Z,97844.58
2018-10-02T08:34:18.920Z,97835.86
2018-10-02T08:39:13.747Z,97827.31
2018-10-02T08:44:08.657Z,97836.82
2018-10-02T08:49:03.521Z,97829.61
2018-10-02T08:53:58.394Z,97825.46
2018-10-02T08:58:53.186Z,97828.82
2018-10-02T09:03:48.028Z,97832.05
2018-10-02T09:08:42.910Z,97830.09
2018-10-02T09:13:37.732Z,97836.84
2018-10-02T09:18:33.019Z,97828.37
2018-10-02T09:23:27.813Z,97828.42
2018-10-02T09:28:23.464Z,97825.23
2018-10-02T09:33:24.597Z,97816.94
2018-10-02T09:38:25.234Z,97813.10
2018-10-02T09:43:21.965Z,97820.92
2018-10-02T09:48:16.705Z,97810.72
2018-10-02T09:53:11.543Z,97818.02
2018-10-02T09:58:06.458Z,97801.52
2018-10-02T10:03:01.357Z,97796.41
2018-10-02T10:07:56.347Z,97794.20
2018-10-02T10:12:51.522Z,97793.71
2018-10-02T10:17:46.325Z,97797.59
2018-10-02T10:22:41.187Z,97803.70
2018-10-02T10:27:36.049Z,97810.56
2018-10-02T10:32:30.916Z,97811.65
2018-10-02T10:37:25.698Z,97802.74
2018-10-02T10:42:20.529Z,97802.06
2018-10-02T10:47:15.458Z,97795.52
2018-10-02T10:52:10.314Z,97794.41
2018-10-02T10:57:05.125Z,97793.45
2018-10-02T11:01:59.883Z,97796.55
2018-10-02T11:06:54.728Z,97796.70
2018-10-02T11:11:49.564Z,97793.68
2018-10-02T11:16:44.365Z,97787.03
2018-10-02T11:21:39.279Z,97779.98
2018-10-02T11:26:34.082Z,97766.42
2018-10-02T11:31:28.990Z,97758.81
2018-10-02T11:36:23.802Z,97753.17
2018-10-02T11:41:19.543Z,97758.42
2018-10-02T11:46:14.425Z,97754.40
2018-10-02T11:51:09.245Z,97747.66
2018-10-02T11:56:04.112Z,97751.70
2018-10-02T12:00:59.038Z,97749.77
2018-10-02T12:05:53.799Z,97729.03
2018-10-02T12:10:48.589Z,97723.53
2018-10-02T12:15:44.267Z,97715.61
2018-10-02T12:20:39.090Z,97711.16
2018-10-02T12:25:33.961Z,97710.56
2018-10-02T12:30:28.757Z,97710.82
2018-10-02T12:35:23.550Z,97708.19
2018-10-02T12:40:18.366Z,97710.92
2018-10-02T12:45:13.174Z,97698.95
2018-10-02T12:50:08.048Z,97707.56
2018-10-02T12:55:02.850Z,97703.00
2018-10-02T12:59:57.673Z,97702.07
2018-10-02T13:04:52.430Z,97697.28
2018-10-02T13:09:47.255Z,97704.71
2018-10-02T13:14:43.857Z,97706.00
2018-10-02T13:19:40.791Z,97700.63
2018-10-02T13:24:35.750Z,97686.70
2018-10-02T13:29:30.561Z,97692.81
2018-10-02T13:34:25.562Z,97683.00
2018-10-02T13:39:20.358Z,97684.92
2018-10-02T13:44:15.294Z,97676.54
2018-10-02T13:49:10.162Z,97667.78
2018-10-02T13:54:04.967Z,97677.95
2018-10-02T13:58:59.832Z,97677.58
2018-10-02T14:03:54.660Z,97679.08
2018-10-02T14:08:49.495Z,97696.35
2018-10-02T14:13:44.322Z,97695.55
2018-10-02T14:18:39.122Z,97697.64
2018-10-02T14:23:34.345Z,97703.05
2018-10-02T14:28:29.235Z,97695.81
2018-10-02T14:33:24.059Z,97693.73
2018-10-02T14:38:18.867Z,97687.80
2018-10-02T14:43:14.658Z,97683.23
2018-10-02T14:48:09.534Z,97678.45
2018-10-02T14:53:04.407Z,97681.84
2018-10-02T14:57:59.210Z,97675.47
2018-10-02T15:02:54.058Z,97682.80
2018-10-02T15:07:48.854Z,97681.42
2018-10-02T15:12:43.706Z,97677.39
2018-10-02T15:17:40.111Z,97683.21
2018-10-02T15:22:35.358Z,97683.19
2018-10-02T15:27:30.204Z,97685.11
2018-10-02T15:32:25.011Z,97684.81
2018-10-02T15:37:19.840Z,97675.48
2018-10-02T15:42:14.673Z,97678.59
2018-10-02T15:47:10.602Z,97674.64
2018-10-02T15:52:05.473Z,97668.16
2018-10-02T15:57:00.276Z,97665.77
2018-10-02T16:01:55.078Z,97665.61
2018-10-02T16:06:49.962Z,97672.81
2018-10-02T16:11:45.019Z,97670.94
2018-10-02T16:16:39.794Z,97679.94
2018-10-02T16:21:34.631Z,97673.73
2018-10-02T16:26:29.505Z,97680.83
2018-10-02T16:31:24.325Z,97682.70
2018-10-02T16:36:19.380Z,97690.78
2018-10-02T16:41:14.489Z,97697.38
2018-10-02T16:46:09.332Z,97698.02
2018-10-02T16:51:04.193Z,97702.37
2018-10-02T16:55:59.006Z,97709.73
2018-10-02T17:00:53.973Z,97710.58
2018-10-02T17:05:50.227Z,97712.27
2018-10-02T17:10:46.023Z,97726.67
2018-10-02T17:15:41.287Z,97726.87
2018-10-02T17:20:36.157Z,97739.48
2018-10-02T17:25:30.975Z,97738.75
2018-10-02T17:30:26.031Z,97745.71
2018-10-02T17:35:20.928Z,97751.00
2018-10-02T17:40:15.830Z,97768.33
2018-10-02T17:45:10.699Z,97770.66
2018-10-02T17:50:05.615Z,97778.42
2018-10-02T17:55:00.540Z,97796.56
2018-10-02T17:59:55.473Z,97810.73
2018-10-02T18:04:50.325Z,97810.59
2018-10-02T18:09:45.130Z,97822.12
2018-10-02T18:14:39.961Z,97814.53
2018-10-02T18:19:34.819Z,97823.09
2018-10-02T18:24:29.707Z,97828.66
2018-10-02T18:29:24.538Z,97829.57
2018-10-02T18:34:19.432Z,97828.73
2018-10-02T18:39:15.296Z,97813.59
2018-10-02T18:44:11.249Z,97815.71
2018-10-02T18:49:06.357Z,97815.93
2018-10-02T18:54:01.251Z,97819.80
2018-10-02T18:58:56.363Z,97832.45
2018-10-02T19:03:51.256Z,97840.14
2018-10-02T19:08:51.373Z,97843.65
2018-10-02T19:13:46.514Z,97840.29
2018-10-02T19:18:41.615Z,97844.23
2018-10-02T19:23:36.749Z,97851.31
2018-10-02T19:28:33.205Z,97854.44
2018-10-02T19:33:28.818Z,97857.25
2018-10-02T19:38:30.244Z,97862.42
2018-10-02T19:43:25.321Z,97859.66
2018-10-02T19:48:20.776Z,97864.50
2018-10-02T19:53:15.640Z,97863.00
2018-10-02T19:58:11.469Z,97867.75
2018-10-02T20:03:09.270Z,97851.19
2018-10-02T20:08:04.965Z,97865.91
2018-10-02T20:12:59.811Z,97876.94
2018-10-02T20:17:54.642Z,97882.30
2018-10-02T20:22:49.636Z,97880.70
2018-10-02T20:27:44.557Z,97896.27
2018-10-02T20:32:39.406Z,97908.73
2018-10-02T20:37:34.331Z,97925.44
2018-10-02T20:42:29.234Z,97920.37
2018-10-02T20:47:24.299Z,97916.25
2018-10-02T20:52:19.182Z,97920.63
2018-10-02T20:57:14.378Z,97929.39
2018-10-02T21:02:09.273Z,97924.14
2018-10-02T21:07:05.222Z,97929.57
2018-10-02T21:12:00.953Z,97925.07
2018-10-02T21:16:56.631Z,97929.27
2018-10-02T21:21:51.615Z,97928.42
2018-10-02T21:26:46.485Z,97932.95
2018-10-02T21:31:42.405Z,97939.44
2018-10-02T21:36:37.282Z,97946.36
2018-10-02T21:41:32.752Z,97949.84
2018-10-02T21:46:27.842Z,97944.95
2018-10-02T21:51:25.356Z,97944.20
2018-10-02T21:56:20.186Z,97948.60
2018-10-02T22:01:15.335Z,97942.63
2018-10-02T22:06:10.163Z,97937.36
2018-10-02T22:11:05.109Z,97936.98
2018-10-02T22:16:00.306Z,97943.37
2018-10-02T22:20:55.170Z,97929.22
2018-10-02T22:25:49.958Z,97924.42
2018-10-02T22:30:44.814Z,97912.33
2018-10-02T22:35:39.749Z,97900.24
2018-10-02T22:40:34.564Z,97874.02
2018-10-02T22:45:29.402Z,97862.80
2018-10-02T22:50:24.210Z,97847.53
2018-10-02T22:55:19.229Z,97852.94
2018-10-02T23:00:14.062Z,97848.64
2018-10-02T23:05:08.938Z,97856.71
2018-10-02T23:10:03.893Z,97858.55
2018-10-02T23:14:58.689Z,97858.86
2018-10-02T23:19:53.487Z,97873.47
2018-10-02T23:24:48.307Z,97863.44
2018-10-02T23:29:43.110Z,97856.42
2018-10-02T23:34:37.935Z,97855.46
2018-10-02T23:39:33.060Z,97857.70
2018-10-02T23:44:27.932Z,97861.11
2018-10-02T23:49:22.710Z,97870.27
2018-10-02T23:54:17.569Z,97868.23
2018-10-02T23:59:12.434Z,97866.80
